sensor_id;sensor_type;location;lat;lon;timestamp;P1;durP1;ratioP1;P2;durP2;ratioP2
68993;SDS011;56054;50.968;5.816;2023-04-03T05:42:31;16.10;;;7.40;;
68993;SDS011;56054;50.968;5.816;2023-04-03T05:45:39;13.97;;;6.67;;
68993;SDS011;56054;50.968;5.816;2023-04-03T05:48:46;9.73;;;7.00;;
68993;SDS011;56054;50.968;5.816;2023-04-03T05:51:56;14.63;;;6.90;;
68993;SDS011;56054;50.968;5.816;2023-04-03T05:55:05;12.33;;;6.97;;
68993;SDS011;56054;50.968;5.816;2023-04-03T05:58:15;9.97;;;6.27;;
68993;SDS011;56054;50.968;5.816;2023-04-03T06:01:24;11.77;;;6.10;;
68993;SDS011;56054;50.968;5.816;2023-04-03T06:04:31;9.90;;;5.20;;
68993;SDS011;56054;50.968;5.816;2023-04-03T06:07:38;10.27;;;5.50;;
68993;SDS011;56054;50.968;5.816;2023-04-03T06:10:45;14.67;;;5.57;;
68993;SDS011;56054;50.968;5.816;2023-04-03T06:14:18;8.37;;;5.77;;
68993;SDS011;56054;50.968;5.816;2023-04-03T06:17:25;12.20;;;5.83;;
68993;SDS011;56054;50.968;5.816;2023-04-03T06:20:32;9.60;;;6.07;;
68993;SDS011;56054;50.968;5.816;2023-04-03T06:23:39;10.67;;;5.17;;
68993;SDS011;56054;50.968;5.816;2023-04-03T06:26:46;7.93;;;4.43;;
68993;SDS011;56054;50.968;5.816;2023-04-03T06:30:19;11.03;;;4.10;;
68993;SDS011;56054;50.968;5.816;2023-04-03T06:33:26;8.13;;;3.70;;
68993;SDS011;56054;50.968;5.816;2023-04-03T06:36:33;12.43;;;4.37;;
68993;SDS011;56054;50.968;5.816;2023-04-03T06:39:40;7.33;;;3.90;;
68993;SDS011;56054;50.968;5.816;2023-04-03T06:42:47;11.90;;;4.93;;
68993;SDS011;56054;50.968;5.816;2023-04-03T06:46:01;11.63;;;3.57;;
68993;SDS011;56054;50.968;5.816;2023-04-03T06:49:08;5.87;;;3.30;;
68993;SDS011;56054;50.968;5.816;2023-04-03T06:52:16;6.30;;;3.60;;
68993;SDS011;56054;50.968;5.816;2023-04-03T06:55:23;7.60;;;3.03;;
68993;SDS011;56054;50.968;5.816;2023-04-03T06:58:30;6.73;;;2.60;;
68993;SDS011;56054;50.968;5.816;2023-04-03T07:01:37;5.30;;;3.43;;
68993;SDS011;56054;50.968;5.816;2023-04-03T07:04:44;8.27;;;3.97;;
68993;SDS011;56054;50.968;5.816;2023-04-03T07:07:51;12.30;;;3.57;;
68993;SDS011;56054;50.968;5.816;2023-04-03T07:10:58;5.57;;;3.10;;
68993;SDS011;56054;50.968;5.816;2023-04-03T07:14:07;12.17;;;3.77;;
68993;SDS011;56054;50.968;5.816;2023-04-03T07:17:14;5.87;;;3.30;;
68993;SDS011;56054;50.968;5.816;2023-04-03T07:20:47;15.23;;;3.37;;
68993;SDS011;56054;50.968;5.816;2023-04-03T07:23:54;5.10;;;3.03;;
68993;SDS011;56054;50.968;5.816;2023-04-03T07:27:01;6.17;;;3.13;;
68993;SDS011;56054;50.968;5.816;2023-04-03T07:30:08;5.90;;;3.47;;
68993;SDS011;56054;50.968;5.816;2023-04-03T07:33:17;9.43;;;3.30;;
68993;SDS011;56054;50.968;5.816;2023-04-03T07:36:26;8.53;;;3.10;;
68993;SDS011;56054;50.968;5.816;2023-04-03T07:39:33;6.13;;;2.73;;
68993;SDS011;56054;50.968;5.816;2023-04-03T07:42:40;4.47;;;2.83;;
68993;SDS011;56054;50.968;5.816;2023-04-03T07:45:48;4.73;;;3.03;;
68993;SDS011;56054;50.968;5.816;2023-04-03T07:48:56;10.40;;;3.07;;
68993;SDS011;56054;50.968;5.816;2023-04-03T07:52:03;7.70;;;2.80;;
68993;SDS011;56054;50.968;5.816;2023-04-03T07:55:11;9.07;;;3.27;;
68993;SDS011;56054;50.968;5.816;2023-04-03T07:58:18;7.53;;;3.40;;
68993;SDS011;56054;50.968;5.816;2023-04-03T08:01:25;6.03;;;2.93;;
68993;SDS011;56054;50.968;5.816;2023-04-03T08:04:32;6.40;;;2.33;;
68993;SDS011;56054;50.968;5.816;2023-04-03T08:07:39;7.20;;;3.03;;
68993;SDS011;56054;50.968;5.816;2023-04-03T08:10:53;7.60;;;3.03;;
68993;SDS011;56054;50.968;5.816;2023-04-03T08:14:04;4.70;;;2.77;;
68993;SDS011;56054;50.968;5.816;2023-04-03T08:17:36;7.50;;;2.87;;
68993;SDS011;56054;50.968;5.816;2023-04-03T08:20:44;7.37;;;2.80;;
68993;SDS011;56054;50.968;5.816;2023-04-03T08:23:51;12.23;;;3.10;;
68993;SDS011;56054;50.968;5.816;2023-04-03T08:27:05;5.30;;;2.57;;
68993;SDS011;56054;50.968;5.816;2023-04-03T08:30:42;10.77;;;3.37;;
68993;SDS011;56054;50.968;5.816;2023-04-03T08:33:49;9.30;;;2.47;;
68993;SDS011;56054;50.968;5.816;2023-04-03T08:36:56;10.60;;;2.67;;
68993;SDS011;56054;50.968;5.816;2023-04-03T08:40:10;6.97;;;3.13;;
68993;SDS011;56054;50.968;5.816;2023-04-03T08:50:53;7.30;;;2.37;;
68993;SDS011;56054;50.968;5.816;2023-04-03T08:54:05;6.73;;;2.27;;
68993;SDS011;56054;50.968;5.816;2023-04-03T08:57:33;4.90;;;2.00;;
68993;SDS011;56054;50.968;5.816;2023-04-03T09:03:55;2.70;;;1.40;;
68993;SDS011;56054;50.968;5.816;2023-04-03T09:07:04;6.33;;;1.50;;
68993;SDS011;56054;50.968;5.816;2023-04-03T09:10:24;5.53;;;1.63;;
68993;SDS011;56054;50.968;5.816;2023-04-03T09:13:52;4.50;;;1.93;;
68993;SDS011;56054;50.968;5.816;2023-04-03T09:17:18;3.10;;;1.80;;
68993;SDS011;56054;50.968;5.816;2023-04-03T09:20:42;3.07;;;1.47;;
68993;SDS011;56054;50.968;5.816;2023-04-03T09:23:52;4.97;;;1.10;;
68993;SDS011;56054;50.968;5.816;2023-04-03T09:27:04;4.77;;;1.63;;
68993;SDS011;56054;50.968;5.816;2023-04-03T09:30:15;4.27;;;1.80;;
68993;SDS011;56054;50.968;5.816;2023-04-03T09:33:23;4.90;;;1.30;;
68993;SDS011;56054;50.968;5.816;2023-04-03T09:39:53;2.60;;;1.47;;
68993;SDS011;56054;50.968;5.816;2023-04-03T09:43:08;4.53;;;1.73;;
68993;SDS011;56054;50.968;5.816;2023-04-03T09:46:29;3.77;;;1.20;;
68993;SDS011;56054;50.968;5.816;2023-04-03T09:49:40;5.30;;;1.13;;
68993;SDS011;56054;50.968;5.816;2023-04-03T09:52:48;5.13;;;1.50;;
68993;SDS011;56054;50.968;5.816;2023-04-03T09:59:39;2.00;;;0.97;;
68993;SDS011;56054;50.968;5.816;2023-04-03T10:03:44;1.70;;;0.83;;
68993;SDS011;56054;50.968;5.816;2023-04-03T10:06:54;3.43;;;1.10;;
68993;SDS011;56054;50.968;5.816;2023-04-03T10:13:21;3.37;;;1.33;;
68993;SDS011;56054;50.968;5.816;2023-04-03T10:16:32;4.00;;;1.23;;
68993;SDS011;56054;50.968;5.816;2023-04-03T10:19:43;5.80;;;1.03;;
68993;SDS011;56054;50.968;5.816;2023-04-03T10:26:47;2.13;;;1.00;;
68993;SDS011;56054;50.968;5.816;2023-04-03T10:36:48;3.10;;;1.10;;
68993;SDS011;56054;50.968;5.816;2023-04-03T10:43:44;2.57;;;1.17;;
68993;SDS011;56054;50.968;5.816;2023-04-03T10:51:09;2.87;;;1.10;;
68993;SDS011;56054;50.968;5.816;2023-04-03T10:54:31;3.40;;;1.00;;
68993;SDS011;56054;50.968;5.816;2023-04-03T10:57:44;5.00;;;1.13;;
68993;SDS011;56054;50.968;5.816;2023-04-03T11:00:57;6.33;;;1.37;;
68993;SDS011;56054;50.968;5.816;2023-04-03T11:04:12;2.47;;;0.90;;
68993;SDS011;56054;50.968;5.816;2023-04-03T11:07:29;2.97;;;1.13;;
68993;SDS011;56054;50.968;5.816;2023-04-03T11:10:45;2.63;;;1.30;;
68993;SDS011;56054;50.968;5.816;2023-04-03T11:14:21;1.90;;;1.00;;
68993;SDS011;56054;50.968;5.816;2023-04-03T11:17:59;4.30;;;1.07;;
68993;SDS011;56054;50.968;5.816;2023-04-03T11:21:23;3.63;;;1.00;;
68993;SDS011;56054;50.968;5.816;2023-04-03T11:24:37;4.73;;;0.97;;
68993;SDS011;56054;50.968;5.816;2023-04-03T11:27:57;3.93;;;1.17;;
68993;SDS011;56054;50.968;5.816;2023-04-03T11:35:16;2.63;;;1.10;;
68993;SDS011;56054;50.968;5.816;2023-04-03T11:38:31;2.00;;;0.90;;
68993;SDS011;56054;50.968;5.816;2023-04-03T11:41:41;1.53;;;0.77;;
68993;SDS011;56054;50.968;5.816;2023-04-03T11:45:50;4.90;;;0.87;;
68993;SDS011;56054;50.968;5.816;2023-04-03T11:48:56;3.43;;;0.80;;
68993;SDS011;56054;50.968;5.816;2023-04-03T11:52:03;1.33;;;0.83;;
68993;SDS011;56054;50.968;5.816;2023-04-03T11:58:36;4.73;;;1.47;;
68993;SDS011;56054;50.968;5.816;2023-04-03T12:01:54;4.17;;;0.70;;
68993;SDS011;56054;50.968;5.816;2023-04-03T12:05:25;2.70;;;1.10;;
68993;SDS011;56054;50.968;5.816;2023-04-03T12:15:55;3.17;;;1.40;;
68993;SDS011;56054;50.968;5.816;2023-04-03T12:19:31;3.73;;;1.00;;
68993;SDS011;56054;50.968;5.816;2023-04-03T12:23:06;6.27;;;1.07;;
68993;SDS011;56054;50.968;5.816;2023-04-03T12:27:05;2.40;;;0.73;;
68993;SDS011;56054;50.968;5.816;2023-04-03T12:30:22;2.73;;;0.90;;
68993;SDS011;56054;50.968;5.816;2023-04-03T12:33:47;2.70;;;1.07;;
68993;SDS011;56054;50.968;5.816;2023-04-03T12:48:12;2.93;;;1.10;;
68993;SDS011;56054;50.968;5.816;2023-04-03T12:51:31;2.13;;;1.00;;
68993;SDS011;56054;50.968;5.816;2023-04-03T12:54:44;2.30;;;0.80;;
68993;SDS011;56054;50.968;5.816;2023-04-03T13:01:45;2.03;;;0.93;;
68993;SDS011;56054;50.968;5.816;2023-04-03T13:05:07;3.17;;;1.40;;
68993;SDS011;56054;50.968;5.816;2023-04-03T13:08:21;4.43;;;1.20;;
68993;SDS011;56054;50.968;5.816;2023-04-03T13:11:39;4.73;;;1.20;;
68993;SDS011;56054;50.968;5.816;2023-04-03T13:14:52;2.60;;;0.90;;
68993;SDS011;56054;50.968;5.816;2023-04-03T13:18:01;2.17;;;0.97;;
68993;SDS011;56054;50.968;5.816;2023-04-03T13:21:15;1.93;;;0.97;;
68993;SDS011;56054;50.968;5.816;2023-04-03T13:24:25;4.90;;;1.20;;
68993;SDS011;56054;50.968;5.816;2023-04-03T13:27:33;2.17;;;1.10;;
68993;SDS011;56054;50.968;5.816;2023-04-03T13:34:19;1.90;;;0.70;;
68993;SDS011;56054;50.968;5.816;2023-04-03T13:37:28;3.40;;;1.13;;
68993;SDS011;56054;50.968;5.816;2023-04-03T13:40:46;3.13;;;1.07;;
68993;SDS011;56054;50.968;5.816;2023-04-03T13:47:37;5.70;;;1.57;;
68993;SDS011;56054;50.968;5.816;2023-04-03T13:54:57;1.83;;;1.00;;
68993;SDS011;56054;50.968;5.816;2023-04-03T14:01:25;4.90;;;0.90;;
68993;SDS011;56054;50.968;5.816;2023-04-03T14:04:47;2.20;;;0.70;;
68993;SDS011;56054;50.968;5.816;2023-04-03T14:08:03;4.10;;;1.03;;
68993;SDS011;56054;50.968;5.816;2023-04-03T14:11:18;3.23;;;0.90;;
68993;SDS011;56054;50.968;5.816;2023-04-03T14:14:30;2.07;;;1.10;;
68993;SDS011;56054;50.968;5.816;2023-04-03T14:17:39;2.57;;;1.03;;
68993;SDS011;56054;50.968;5.816;2023-04-03T14:20:47;3.87;;;1.13;;
68993;SDS011;56054;50.968;5.816;2023-04-03T14:23:58;2.00;;;0.90;;
68993;SDS011;56054;50.968;5.816;2023-04-03T14:27:09;1.57;;;0.80;;
68993;SDS011;56054;50.968;5.816;2023-04-03T14:30:38;3.10;;;1.20;;
68993;SDS011;56054;50.968;5.816;2023-04-03T14:33:48;2.90;;;0.90;;
68993;SDS011;56054;50.968;5.816;2023-04-03T14:36:58;5.10;;;1.07;;
68993;SDS011;56054;50.968;5.816;2023-04-03T14:40:06;3.63;;;1.20;;
68993;SDS011;56054;50.968;5.816;2023-04-03T14:43:15;2.13;;;0.90;;
68993;SDS011;56054;50.968;5.816;2023-04-03T14:46:57;1.67;;;0.70;;
68993;SDS011;56054;50.968;5.816;2023-04-03T14:50:11;3.10;;;1.20;;
68993;SDS011;56054;50.968;5.816;2023-04-03T14:53:23;2.43;;;1.03;;
68993;SDS011;56054;50.968;5.816;2023-04-03T14:56:30;2.50;;;0.83;;
68993;SDS011;56054;50.968;5.816;2023-04-03T14:59:43;4.33;;;2.00;;
68993;SDS011;56054;50.968;5.816;2023-04-03T15:02:52;2.57;;;0.90;;
68993;SDS011;56054;50.968;5.816;2023-04-03T15:06:05;1.23;;;0.90;;
68993;SDS011;56054;50.968;5.816;2023-04-03T15:09:16;3.03;;;1.10;;
68993;SDS011;56054;50.968;5.816;2023-04-03T15:12:26;3.43;;;1.60;;
68993;SDS011;56054;50.968;5.816;2023-04-03T15:15:33;2.87;;;1.20;;
68993;SDS011;56054;50.968;5.816;2023-04-03T15:18:45;1.77;;;1.00;;
68993;SDS011;56054;50.968;5.816;2023-04-03T15:21:55;1.63;;;0.77;;
68993;SDS011;56054;50.968;5.816;2023-04-03T15:25:02;3.23;;;1.10;;
68993;SDS011;56054;50.968;5.816;2023-04-03T15:28:13;2.23;;;0.97;;
68993;SDS011;56054;50.968;5.816;2023-04-03T15:31:25;1.67;;;0.80;;
68993;SDS011;56054;50.968;5.816;2023-04-03T15:34:34;4.60;;;0.80;;
68993;SDS011;56054;50.968;5.816;2023-04-03T15:37:50;2.27;;;0.80;;
68993;SDS011;56054;50.968;5.816;2023-04-03T15:40:57;5.17;;;2.80;;
68993;SDS011;56054;50.968;5.816;2023-04-03T15:44:13;5.80;;;3.07;;
68993;SDS011;56054;50.968;5.816;2023-04-03T15:47:25;6.00;;;1.90;;
68993;SDS011;56054;50.968;5.816;2023-04-03T15:50:59;8.03;;;3.27;;
68993;SDS011;56054;50.968;5.816;2023-04-03T15:54:15;3.03;;;1.10;;
68993;SDS011;56054;50.968;5.816;2023-04-03T15:57:22;3.60;;;1.70;;
68993;SDS011;56054;50.968;5.816;2023-04-03T16:04:12;4.40;;;2.17;;
68993;SDS011;56054;50.968;5.816;2023-04-03T16:07:19;4.23;;;1.50;;
68993;SDS011;56054;50.968;5.816;2023-04-03T16:10:26;5.53;;;1.20;;
68993;SDS011;56054;50.968;5.816;2023-04-03T16:13:33;2.50;;;1.10;;
68993;SDS011;56054;50.968;5.816;2023-04-03T16:16:40;2.83;;;0.77;;
68993;SDS011;56054;50.968;5.816;2023-04-03T16:19:49;3.97;;;1.20;;
68993;SDS011;56054;50.968;5.816;2023-04-03T16:22:57;3.23;;;1.20;;
68993;SDS011;56054;50.968;5.816;2023-04-03T16:26:06;7.10;;;2.37;;
68993;SDS011;56054;50.968;5.816;2023-04-03T16:29:13;13.70;;;4.50;;
68993;SDS011;56054;50.968;5.816;2023-04-03T16:32:43;2.83;;;1.50;;
68993;SDS011;56054;50.968;5.816;2023-04-03T16:35:56;2.03;;;0.97;;
68993;SDS011;56054;50.968;5.816;2023-04-03T16:39:03;3.07;;;1.10;;
68993;SDS011;56054;50.968;5.816;2023-04-03T16:42:10;2.73;;;1.00;;
68993;SDS011;56054;50.968;5.816;2023-04-03T16:45:17;6.00;;;1.70;;
68993;SDS011;56054;50.968;5.816;2023-04-03T16:48:25;3.20;;;1.27;;
68993;SDS011;56054;50.968;5.816;2023-04-03T16:51:58;2.60;;;1.23;;
68993;SDS011;56054;50.968;5.816;2023-04-03T16:55:08;3.77;;;1.37;;
68993;SDS011;56054;50.968;5.816;2023-04-03T16:58:15;3.20;;;1.10;;
68993;SDS011;56054;50.968;5.816;2023-04-03T17:01:23;1.77;;;0.93;;
68993;SDS011;56054;50.968;5.816;2023-04-03T17:04:37;1.43;;;0.97;;
68993;SDS011;56054;50.968;5.816;2023-04-03T17:07:44;2.33;;;0.80;;
68993;SDS011;56054;50.968;5.816;2023-04-03T17:10:58;3.10;;;1.10;;
68993;SDS011;56054;50.968;5.816;2023-04-03T17:14:09;4.97;;;1.23;;
68993;SDS011;56054;50.968;5.816;2023-04-03T17:17:18;2.40;;;0.97;;
68993;SDS011;56054;50.968;5.816;2023-04-03T17:20:34;2.30;;;1.10;;
68993;SDS011;56054;50.968;5.816;2023-04-03T17:23:44;7.13;;;1.07;;
68993;SDS011;56054;50.968;5.816;2023-04-03T17:27:04;2.53;;;1.27;;
68993;SDS011;56054;50.968;5.816;2023-04-03T17:30:11;5.27;;;1.27;;
68993;SDS011;56054;50.968;5.816;2023-04-03T17:33:21;6.77;;;1.47;;
68993;SDS011;56054;50.968;5.816;2023-04-03T17:36:31;5.93;;;1.37;;
68993;SDS011;56054;50.968;5.816;2023-04-03T17:39:39;1.90;;;0.97;;
68993;SDS011;56054;50.968;5.816;2023-04-03T17:42:46;2.60;;;1.17;;
68993;SDS011;56054;50.968;5.816;2023-04-03T17:45:56;3.47;;;1.00;;
68993;SDS011;56054;50.968;5.816;2023-04-03T17:49:14;5.17;;;1.30;;
68993;SDS011;56054;50.968;5.816;2023-04-03T17:52:24;8.77;;;2.43;;
68993;SDS011;56054;50.968;5.816;2023-04-03T17:55:37;10.53;;;3.03;;
68993;SDS011;56054;50.968;5.816;2023-04-03T17:58:58;4.60;;;1.47;;
68993;SDS011;56054;50.968;5.816;2023-04-03T18:02:05;6.93;;;1.30;;
68993;SDS011;56054;50.968;5.816;2023-04-03T18:05:13;40.70;;;10.37;;
68993;SDS011;56054;50.968;5.816;2023-04-03T18:08:20;15.73;;;4.77;;
68993;SDS011;56054;50.968;5.816;2023-04-03T18:11:40;5.40;;;1.80;;
68993;SDS011;56054;50.968;5.816;2023-04-03T18:14:49;49.80;;;15.57;;
68993;SDS011;56054;50.968;5.816;2023-04-03T18:17:58;20.40;;;7.43;;
68993;SDS011;56054;50.968;5.816;2023-04-03T18:21:07;3.57;;;1.33;;
68993;SDS011;56054;50.968;5.816;2023-04-03T18:24:17;5.90;;;1.83;;
68993;SDS011;56054;50.968;5.816;2023-04-03T18:27:31;20.27;;;9.90;;
68993;SDS011;56054;50.968;5.816;2023-04-03T18:30:39;6.40;;;4.13;;
68993;SDS011;56054;50.968;5.816;2023-04-03T18:33:48;4.23;;;1.23;;
68993;SDS011;56054;50.968;5.816;2023-04-03T18:36:58;8.70;;;5.60;;
68993;SDS011;56054;50.968;5.816;2023-04-03T18:40:09;6.43;;;1.37;;
68993;SDS011;56054;50.968;5.816;2023-04-03T18:43:19;4.57;;;1.30;;
68993;SDS011;56054;50.968;5.816;2023-04-03T18:46:26;4.03;;;1.90;;
68993;SDS011;56054;50.968;5.816;2023-04-03T18:49:34;2.97;;;1.17;;
68993;SDS011;56054;50.968;5.816;2023-04-03T18:52:44;3.27;;;1.20;;
68993;SDS011;56054;50.968;5.816;2023-04-03T18:55:50;4.63;;;1.40;;
68993;SDS011;56054;50.968;5.816;2023-04-03T18:58:58;3.80;;;1.63;;
68993;SDS011;56054;50.968;5.816;2023-04-03T19:02:06;8.37;;;3.47;;
68993;SDS011;56054;50.968;5.816;2023-04-03T19:05:14;2.63;;;1.47;;
68993;SDS011;56054;50.968;5.816;2023-04-03T19:08:29;3.57;;;1.47;;
68993;SDS011;56054;50.968;5.816;2023-04-03T19:11:36;2.00;;;1.27;;
68993;SDS011;56054;50.968;5.816;2023-04-03T19:14:43;5.50;;;1.30;;
68993;SDS011;56054;50.968;5.816;2023-04-03T19:17:50;3.47;;;1.40;;
68993;SDS011;56054;50.968;5.816;2023-04-03T19:20:57;3.67;;;1.57;;
68993;SDS011;56054;50.968;5.816;2023-04-03T19:24:05;2.87;;;1.40;;
68993;SDS011;56054;50.968;5.816;2023-04-03T19:27:19;4.27;;;1.37;;
68993;SDS011;56054;50.968;5.816;2023-04-03T19:30:36;4.00;;;1.30;;
68993;SDS011;56054;50.968;5.816;2023-04-03T19:33:43;4.83;;;0.80;;
68993;SDS011;56054;50.968;5.816;2023-04-03T19:36:56;2.13;;;1.20;;
68993;SDS011;56054;50.968;5.816;2023-04-03T19:40:03;8.27;;;1.30;;
68993;SDS011;56054;50.968;5.816;2023-04-03T19:43:12;5.73;;;1.33;;
68993;SDS011;56054;50.968;5.816;2023-04-03T19:46:46;2.60;;;1.27;;
68993;SDS011;56054;50.968;5.816;2023-04-03T19:49:53;11.90;;;4.00;;
68993;SDS011;56054;50.968;5.816;2023-04-03T19:53:00;10.53;;;4.40;;
68993;SDS011;56054;50.968;5.816;2023-04-03T19:56:09;4.80;;;1.30;;
68993;SDS011;56054;50.968;5.816;2023-04-03T19:59:17;1.60;;;1.10;;
68993;SDS011;56054;50.968;5.816;2023-04-03T20:02:28;6.03;;;1.50;;
68993;SDS011;56054;50.968;5.816;2023-04-03T20:05:35;3.70;;;1.40;;
68993;SDS011;56054;50.968;5.816;2023-04-03T20:08:42;5.03;;;1.30;;
68993;SDS011;56054;50.968;5.816;2023-04-03T20:11:49;5.07;;;0.93;;
68993;SDS011;56054;50.968;5.816;2023-04-03T20:14:56;4.47;;;1.43;;
68993;SDS011;56054;50.968;5.816;2023-04-03T20:18:10;2.47;;;1.10;;
68993;SDS011;56054;50.968;5.816;2023-04-03T20:21:25;3.50;;;1.20;;
68993;SDS011;56054;50.968;5.816;2023-04-03T20:24:38;3.07;;;1.23;;
68993;SDS011;56054;50.968;5.816;2023-04-03T20:27:45;6.63;;;1.13;;
68993;SDS011;56054;50.968;5.816;2023-04-03T20:31:05;4.73;;;1.40;;
68993;SDS011;56054;50.968;5.816;2023-04-03T20:34:14;10.67;;;3.90;;
68993;SDS011;56054;50.968;5.816;2023-04-03T20:37:21;8.03;;;4.90;;
68993;SDS011;56054;50.968;5.816;2023-04-03T20:40:28;4.40;;;1.47;;
68993;SDS011;56054;50.968;5.816;2023-04-03T20:43:35;7.00;;;1.50;;
68993;SDS011;56054;50.968;5.816;2023-04-03T20:46:43;3.33;;;1.50;;
68993;SDS011;56054;50.968;5.816;2023-04-03T20:49:53;3.37;;;1.47;;
68993;SDS011;56054;50.968;5.816;2023-04-03T20:53:26;2.67;;;1.20;;
68993;SDS011;56054;50.968;5.816;2023-04-03T20:56:33;5.27;;;1.33;;
68993;SDS011;56054;50.968;5.816;2023-04-03T20:59:40;4.03;;;1.20;;
68993;SDS011;56054;50.968;5.816;2023-04-03T21:02:47;11.17;;;3.90;;
68993;SDS011;56054;50.968;5.816;2023-04-03T21:20:00;4.87;;;1.20;;
68993;SDS011;56054;50.968;5.816;2023-04-03T21:23:10;2.57;;;1.40;;
68993;SDS011;56054;50.968;5.816;2023-04-03T21:26:20;3.43;;;1.30;;
68993;SDS011;56054;50.968;5.816;2023-04-03T21:29:43;4.87;;;1.60;;
68993;SDS011;56054;50.968;5.816;2023-04-03T21:33:10;10.00;;;1.70;;
68993;SDS011;56054;50.968;5.816;2023-04-03T21:40:31;8.00;;;1.60;;
68993;SDS011;56054;50.968;5.816;2023-04-03T21:43:38;2.57;;;1.30;;
68993;SDS011;56054;50.968;5.816;2023-04-03T21:46:48;2.90;;;1.30;;
68993;SDS011;56054;50.968;5.816;2023-04-03T21:49:56;2.00;;;1.13;;
68993;SDS011;56054;50.968;5.816;2023-04-03T21:53:14;9.17;;;1.70;;
68993;SDS011;56054;50.968;5.816;2023-04-03T21:56:23;3.30;;;1.43;;
68993;SDS011;56054;50.968;5.816;2023-04-03T21:59:30;5.67;;;2.20;;
68993;SDS011;56054;50.968;5.816;2023-04-03T22:02:39;3.57;;;1.30;;
68993;SDS011;56054;50.968;5.816;2023-04-03T22:05:46;6.53;;;1.70;;
